createdAt,value
2022-10-23T00:01:26.993Z,29.20
2022-10-23T00:03:56.355Z,31.37
2022-10-23T00:06:24.234Z,32.28
2022-10-23T00:08:51.178Z,38.15
2022-10-23T00:11:22.194Z,28.33
2022-10-23T00:13:49.517Z,27.35
2022-10-23T00:16:16.636Z,31.17
2022-10-23T00:18:44.206Z,30.70
2022-10-23T00:21:11.837Z,27.90
2022-10-23T00:23:39.113Z,27.77
2022-10-23T00:26:08.078Z,27.87
2022-10-23T00:28:35.055Z,24.25
2022-10-23T00:31:03.254Z,25.75
2022-10-23T00:33:30.506Z,26.10
2022-10-23T00:35:57.417Z,30.42
2022-10-23T00:38:24.318Z,27.50
2022-10-23T00:40:51.795Z,27.55
2022-10-23T00:43:29.439Z,29.50
2022-10-23T00:45:56.888Z,30.12
2022-10-23T00:48:24.237Z,29.52
2022-10-23T00:50:51.119Z,28.02
2022-10-23T00:53:19.770Z,28.23
2022-10-23T00:55:49.384Z,27.67
2022-10-23T00:58:19.878Z,33.92
2022-10-23T01:03:17.083Z,30.52
2022-10-23T01:05:52.773Z,28.58
2022-10-23T01:08:29.830Z,30.02
2022-10-23T01:11:05.479Z,26.30
2022-10-23T01:13:39.074Z,28.12
2022-10-23T01:16:12.206Z,25.48
2022-10-23T01:18:54.149Z,28.92
2022-10-23T01:21:27.420Z,28.42
2022-10-23T01:24:25.934Z,29.02
2022-10-23T01:27:21.446Z,27.58
2022-10-23T01:30:08.805Z,28.15
2022-10-23T01:32:53.182Z,27.27
2022-10-23T01:35:24.893Z,26.52
2022-10-23T01:38:11.358Z,28.20
2022-10-23T01:40:49.477Z,31.30
2022-10-23T01:43:24.494Z,26.23
2022-10-23T01:45:59.572Z,25.37
2022-10-23T01:48:29.365Z,26.73
2022-10-23T01:50:59.342Z,29.42
2022-10-23T01:53:30.647Z,25.90
2022-10-23T01:55:59.329Z,26.52
2022-10-23T01:58:27.501Z,23.85
2022-10-23T02:00:57.023Z,29.42
2022-10-23T02:03:24.611Z,26.48
2022-10-23T02:05:51.561Z,25.83
2022-10-23T02:08:18.531Z,24.65
2022-10-23T02:11:08.396Z,26.67
2022-10-23T02:13:41.149Z,25.55
2022-10-23T02:16:31.978Z,25.92
2022-10-23T02:19:07.874Z,32.40
2022-10-23T02:21:56.134Z,27.65
2022-10-23T02:24:34.431Z,25.40
2022-10-23T02:27:12.440Z,31.62
2022-10-23T02:29:48.773Z,29.60
2022-10-23T02:32:19.169Z,27.85
2022-10-23T02:37:14.554Z,30.33
2022-10-23T02:39:41.626Z,29.02
2022-10-23T02:42:30.010Z,27.15
2022-10-23T02:45:10.010Z,30.62
2022-10-23T02:48:28.278Z,31.10
2022-10-23T02:51:11.075Z,27.15
2022-10-23T02:53:45.498Z,33.15
2022-10-23T02:56:29.093Z,29.20
2022-10-23T02:59:08.812Z,32.08
2022-10-23T03:01:42.627Z,27.93
2022-10-23T03:04:10.726Z,31.90
2022-10-23T03:06:37.693Z,39.40
2022-10-23T03:09:07.808Z,32.20
2022-10-23T03:11:35.193Z,29.27
2022-10-23T03:14:02.974Z,31.20
2022-10-23T03:16:30.038Z,28.02
2022-10-23T03:18:57.197Z,32.38
2022-10-23T03:21:24.167Z,30.10
2022-10-23T03:23:51.381Z,29.98
2022-10-23T03:26:19.522Z,29.58
2022-10-23T03:28:46.373Z,29.65
2022-10-23T03:31:14.930Z,29.40
2022-10-23T03:33:42.918Z,30.95
2022-10-23T03:36:10.476Z,32.95
2022-10-23T03:38:37.370Z,27.92
2022-10-23T03:41:04.746Z,26.25
2022-10-23T03:43:31.637Z,29.17
2022-10-23T03:45:58.742Z,30.27
2022-10-23T03:48:25.973Z,29.87
2022-10-23T03:50:57.625Z,33.63
2022-10-23T03:53:24.471Z,32.63
2022-10-23T03:55:51.601Z,29.48
2022-10-23T03:58:18.484Z,32.83
2022-10-23T04:00:45.764Z,29.63
2022-10-23T04:03:12.944Z,27.02
2022-10-23T04:05:41.462Z,31.83
2022-10-23T04:08:08.731Z,31.40
2022-10-23T04:10:35.910Z,26.23
2022-10-23T04:13:02.773Z,25.15
2022-10-23T04:15:32.883Z,28.85
2022-10-23T04:18:01.586Z,25.00
2022-10-23T04:20:30.848Z,25.62
2022-10-23T04:23:01.307Z,26.65
2022-10-23T04:25:28.449Z,25.60
2022-10-23T04:27:55.318Z,26.45
2022-10-23T04:30:22.487Z,27.70
2022-10-23T04:32:51.469Z,22.33
2022-10-23T04:35:19.169Z,21.60
2022-10-23T04:37:46.651Z,24.25
2022-10-23T04:40:13.566Z,37.38
2022-10-23T04:42:40.586Z,82.10
2022-10-23T04:45:08.069Z,70.37
2022-10-23T04:47:35.730Z,50.05
2022-10-23T04:50:02.724Z,30.55
2022-10-23T04:52:35.116Z,53.13
2022-10-23T04:55:02.211Z,21.30
2022-10-23T04:57:29.474Z,21.25
2022-10-23T04:59:57.970Z,33.08
2022-10-23T05:02:24.998Z,17.10
2022-10-23T05:04:52.139Z,15.07
2022-10-23T05:09:53.929Z,53.40
2022-10-23T05:12:21.133Z,27.02
2022-10-23T05:14:47.994Z,68.18
2022-10-23T05:17:22.065Z,108.97
2022-10-23T05:19:55.017Z,59.65
2022-10-23T05:22:24.829Z,30.48
2022-10-23T05:24:52.230Z,45.10
2022-10-23T05:27:19.905Z,50.92
2022-10-23T05:29:46.941Z,94.75
2022-10-23T05:32:17.602Z,81.78
2022-10-23T05:34:44.697Z,66.70
2022-10-23T05:37:13.487Z,70.18
2022-10-23T05:39:40.677Z,102.90
2022-10-23T05:42:08.206Z,118.15
2022-10-23T05:44:35.542Z,28.65
2022-10-23T05:47:02.945Z,27.77
2022-10-23T05:49:31.316Z,47.65
2022-10-23T05:52:06.714Z,60.95
2022-10-23T05:54:37.409Z,36.42
2022-10-23T05:57:04.498Z,60.38
2022-10-23T05:59:34.668Z,67.72
2022-10-23T06:02:05.199Z,54.20
2022-10-23T06:04:34.569Z,58.22
2022-10-23T06:07:04.627Z,68.20
2022-10-23T06:09:32.034Z,35.47
2022-10-23T06:12:01.349Z,25.23
2022-10-23T06:14:28.338Z,22.95
2022-10-23T06:16:55.234Z,13.10
2022-10-23T06:19:23.591Z,16.25
2022-10-23T06:21:51.048Z,20.05
2022-10-23T06:24:18.042Z,19.37
2022-10-23T06:26:45.322Z,29.15
2022-10-23T06:29:14.858Z,38.35
2022-10-23T06:31:42.497Z,53.87
2022-10-23T06:34:11.803Z,40.45
2022-10-23T06:36:38.941Z,26.10
2022-10-23T06:39:07.230Z,10.48
2022-10-23T06:41:42.075Z,15.77
2022-10-23T06:44:10.306Z,7.55
2022-10-23T06:46:39.027Z,9.97
2022-10-23T06:49:09.316Z,13.57
2022-10-23T06:51:36.373Z,12.70
2022-10-23T06:54:08.083Z,15.10
2022-10-23T06:56:37.516Z,18.40
2022-10-23T06:59:07.706Z,12.00
2022-10-23T07:01:35.298Z,19.45
2022-10-23T07:04:02.790Z,21.48
2022-10-23T07:06:30.642Z,23.00
2022-10-23T07:08:59.555Z,11.98
2022-10-23T07:13:56.761Z,8.85
2022-10-23T07:16:24.216Z,11.68
2022-10-23T07:18:59.664Z,19.37
2022-10-23T07:21:32.709Z,9.48
2022-10-23T07:24:02.154Z,28.15
2022-10-23T07:26:30.080Z,14.55
2022-10-23T07:28:57.548Z,34.40
2022-10-23T07:31:28.142Z,12.43
2022-10-23T07:34:11.034Z,19.12
2022-10-23T07:36:38.323Z,16.20
2022-10-23T07:39:06.023Z,14.60
2022-10-23T07:41:33.207Z,12.80
2022-10-23T07:44:00.545Z,11.10
2022-10-23T07:46:27.825Z,10.60
2022-10-23T07:48:54.733Z,11.02
2022-10-23T07:51:22.123Z,11.93
2022-10-23T07:53:49.433Z,12.10
2022-10-23T07:56:21.398Z,10.63
2022-10-23T07:58:55.899Z,10.98
2022-10-23T08:01:34.292Z,11.20
2022-10-23T08:04:01.676Z,11.18
2022-10-23T08:06:29.611Z,14.18
2022-10-23T08:08:59.078Z,10.63
2022-10-23T08:11:30.971Z,12.93
2022-10-23T08:13:58.543Z,10.25
2022-10-23T08:16:25.784Z,8.35
2022-10-23T08:18:58.007Z,8.88
2022-10-23T08:21:24.931Z,7.55
2022-10-23T08:23:59.292Z,6.37
2022-10-23T08:26:29.448Z,6.97
2022-10-23T08:28:58.845Z,5.40
2022-10-23T08:31:26.205Z,4.80
2022-10-23T08:33:54.882Z,6.15
2022-10-23T08:36:26.430Z,6.95
2022-10-23T08:38:55.101Z,7.07
2022-10-23T08:41:25.129Z,6.55
2022-10-23T08:44:07.550Z,4.95
2022-10-23T08:46:38.650Z,5.07
2022-10-23T08:49:24.746Z,5.85
2022-10-23T08:51:55.986Z,5.32
2022-10-23T08:55:00.479Z,5.30
2022-10-23T08:57:34.520Z,7.57
2022-10-23T09:00:06.197Z,5.68
2022-10-23T09:06:08.930Z,8.82
2022-10-23T09:09:03.922Z,10.82
2022-10-23T09:11:46.830Z,10.10
2022-10-23T09:14:32.786Z,8.77
2022-10-23T09:17:11.048Z,6.37
2022-10-23T09:19:38.238Z,7.03
2022-10-23T09:22:05.574Z,7.97
2022-10-23T09:24:36.459Z,7.10
2022-10-23T09:29:36.123Z,8.63
2022-10-23T09:32:06.815Z,10.00
2022-10-23T09:34:35.022Z,7.37
2022-10-23T09:37:05.023Z,10.73
2022-10-23T09:39:36.076Z,7.75
2022-10-23T09:42:26.185Z,9.63
2022-10-23T09:44:54.620Z,10.85
2022-10-23T09:47:24.431Z,13.00
2022-10-23T09:49:53.700Z,13.80
2022-10-23T09:52:35.411Z,17.20
2022-10-23T09:55:14.895Z,25.35
2022-10-23T09:57:43.822Z,25.80
2022-10-23T10:00:26.514Z,34.28
2022-10-23T10:03:04.963Z,37.30
2022-10-23T10:05:37.862Z,43.03
2022-10-23T10:08:20.673Z,42.50
2022-10-23T10:10:58.194Z,51.10
2022-10-23T10:13:45.340Z,54.03
2022-10-23T10:19:19.210Z,52.28
2022-10-23T10:21:51.932Z,52.95
2022-10-23T10:24:23.282Z,58.08
2022-10-23T10:27:35.268Z,54.42
2022-10-23T10:30:19.785Z,56.40
2022-10-23T10:32:59.070Z,59.58
2022-10-23T10:35:56.958Z,66.18
2022-10-23T10:38:35.490Z,54.25
2022-10-23T10:41:23.596Z,61.72
2022-10-23T10:44:05.473Z,48.50
2022-10-23T10:46:42.317Z,38.25
2022-10-23T10:49:24.455Z,26.83
2022-10-23T10:52:10.030Z,29.35
2022-10-23T10:54:45.819Z,27.60
2022-10-23T10:57:29.324Z,27.37
2022-10-23T10:59:59.206Z,33.72
2022-10-23T11:02:29.501Z,31.33
2022-10-23T11:05:10.734Z,28.45
2022-10-23T11:07:43.100Z,22.50
2022-10-23T11:10:16.598Z,13.05
2022-10-23T11:12:45.857Z,12.52
2022-10-23T11:15:29.376Z,10.60
2022-10-23T11:18:13.130Z,9.98
2022-10-23T11:20:58.767Z,12.35
2022-10-23T11:23:48.328Z,13.07
2022-10-23T11:26:46.781Z,12.52
2022-10-23T11:29:42.603Z,15.57
2022-10-23T11:32:25.537Z,16.15
2022-10-23T11:35:14.305Z,17.95
2022-10-23T11:37:41.372Z,17.55
2022-10-23T11:40:08.545Z,20.40
2022-10-23T11:42:41.766Z,17.12
2022-10-23T11:45:28.966Z,19.75
2022-10-23T11:48:14.844Z,21.08
2022-10-23T11:50:44.741Z,18.70
2022-10-23T11:53:33.399Z,16.08
2022-10-23T11:56:04.705Z,13.52
2022-10-23T11:58:45.895Z,22.10
2022-10-23T12:01:31.875Z,18.27
2022-10-23T12:04:03.184Z,17.10
2022-10-23T12:06:33.219Z,16.30
2022-10-23T12:09:08.855Z,18.30
2022-10-23T12:11:46.437Z,13.20
2022-10-23T12:14:28.607Z,14.95
2022-10-23T12:16:55.766Z,12.20
2022-10-23T12:19:25.905Z,14.40
2022-10-23T12:21:54.532Z,11.75
2022-10-23T12:24:39.744Z,11.23
2022-10-23T12:27:41.417Z,14.65
2022-10-23T12:30:19.981Z,11.50
2022-10-23T12:33:22.929Z,11.02
2022-10-23T12:36:04.654Z,9.50
2022-10-23T12:38:35.316Z,12.10
2022-10-23T12:41:11.337Z,11.18
2022-10-23T12:43:38.767Z,10.95
2022-10-23T12:46:37.001Z,9.20
2022-10-23T12:49:13.595Z,10.60
2022-10-23T12:51:40.481Z,8.68
2022-10-23T12:54:21.587Z,9.18
2022-10-23T12:56:49.076Z,10.35
2022-10-23T12:59:18.725Z,11.48
2022-10-23T13:01:48.071Z,12.40
2022-10-23T13:04:38.643Z,13.48
2022-10-23T13:07:05.558Z,10.18
2022-10-23T13:09:39.343Z,12.60
2022-10-23T13:12:08.381Z,9.73
2022-10-23T13:14:38.228Z,18.73
2022-10-23T13:17:09.459Z,14.15
2022-10-23T13:19:37.617Z,12.00
2022-10-23T13:22:21.241Z,15.05
2022-10-23T13:24:55.081Z,15.32
2022-10-23T13:27:30.989Z,16.62
2022-10-23T13:29:58.130Z,19.00
2022-10-23T13:32:28.815Z,18.90
2022-10-23T13:35:04.049Z,17.67
2022-10-23T13:37:37.682Z,18.73
2022-10-23T13:40:09.716Z,19.83
2022-10-23T13:42:36.816Z,17.75
2022-10-23T13:45:04.195Z,14.87
2022-10-23T13:47:31.184Z,19.37
2022-10-23T13:49:58.074Z,16.62
2022-10-23T13:52:25.266Z,16.65
2022-10-23T13:54:52.166Z,16.37
2022-10-23T13:57:19.041Z,12.70
2022-10-23T13:59:46.157Z,12.98
2022-10-23T14:02:20.346Z,11.63
2022-10-23T14:04:48.779Z,8.80
2022-10-23T14:07:15.841Z,11.52
2022-10-23T14:09:42.740Z,15.02
2022-10-23T14:12:09.972Z,14.00
2022-10-23T14:14:36.909Z,21.92
2022-10-23T14:17:06.804Z,22.52
2022-10-23T14:19:34.451Z,17.25
2022-10-23T14:22:04.503Z,19.73
2022-10-23T14:24:34.149Z,17.67
2022-10-23T14:27:04.630Z,21.10
2022-10-23T14:29:34.346Z,22.45
2022-10-23T14:32:04.318Z,19.17
2022-10-23T14:34:31.271Z,17.70
2022-10-23T14:37:08.083Z,17.98
2022-10-23T14:39:35.928Z,23.87
2022-10-23T14:42:02.783Z,29.95
2022-10-23T14:44:29.726Z,36.53
2022-10-23T14:47:01.941Z,28.83
2022-10-23T14:49:29.078Z,22.73
2022-10-23T14:51:56.209Z,24.40
2022-10-23T14:54:23.099Z,24.63
2022-10-23T14:56:50.008Z,21.83
2022-10-23T14:59:17.147Z,21.27
2022-10-23T15:01:48.053Z,26.08
2022-10-23T15:04:15.623Z,23.35
2022-10-23T15:06:43.434Z,27.40
2022-10-23T15:09:10.340Z,35.20
2022-10-23T15:11:37.299Z,26.48
2022-10-23T15:14:04.491Z,22.83
2022-10-23T15:16:31.641Z,25.67
2022-10-23T15:18:58.510Z,24.02
2022-10-23T15:21:25.650Z,25.02
2022-10-23T15:23:54.785Z,21.77
2022-10-23T15:26:23.075Z,22.20
2022-10-23T15:28:55.190Z,25.50
2022-10-23T15:31:43.299Z,21.98
2022-10-23T15:34:12.894Z,26.05
2022-10-23T15:36:40.087Z,27.95
2022-10-23T15:39:09.146Z,21.02
2022-10-23T15:41:37.987Z,22.77
2022-10-23T15:44:06.413Z,26.65
2022-10-23T15:46:33.506Z,32.78
2022-10-23T15:49:00.824Z,27.77
2022-10-23T15:51:27.767Z,26.75
2022-10-23T15:53:54.659Z,25.12
2022-10-23T15:56:21.753Z,23.60
2022-10-23T15:58:48.589Z,25.12
2022-10-23T16:01:15.662Z,21.23
2022-10-23T16:03:42.992Z,16.17
2022-10-23T16:06:12.481Z,13.48
2022-10-23T16:08:39.870Z,13.25
2022-10-23T16:11:15.570Z,15.48
2022-10-23T16:13:43.609Z,14.32
2022-10-23T16:16:11.142Z,18.55
2022-10-23T16:18:38.332Z,19.95
2022-10-23T16:21:05.406Z,12.20
2022-10-23T16:23:33.537Z,11.55
2022-10-23T16:26:04.934Z,8.38
2022-10-23T16:28:32.141Z,8.18
2022-10-23T16:30:59.161Z,6.60
2022-10-23T16:33:26.129Z,7.40
2022-10-23T16:35:53.247Z,7.22
2022-10-23T16:38:21.441Z,6.22
2022-10-23T16:40:52.835Z,6.97
2022-10-23T16:43:24.136Z,7.35
2022-10-23T16:46:14.050Z,7.30
2022-10-23T16:48:41.976Z,7.93
2022-10-23T16:51:11.306Z,8.32
2022-10-23T16:53:39.012Z,13.38
2022-10-23T16:56:08.009Z,17.80
2022-10-23T16:58:35.176Z,11.50
2022-10-23T17:01:07.529Z,12.98
2022-10-23T17:03:36.740Z,14.73
2022-10-23T17:06:07.373Z,13.55
2022-10-23T17:08:37.542Z,14.98
2022-10-23T17:11:12.259Z,15.18
2022-10-23T17:13:45.034Z,13.75
2022-10-23T17:16:14.567Z,11.90
2022-10-23T17:18:44.025Z,10.95
2022-10-23T17:21:14.774Z,13.60
2022-10-23T17:23:41.925Z,9.52
2022-10-23T17:26:10.847Z,11.43
2022-10-23T17:28:40.473Z,13.00
2022-10-23T17:31:19.294Z,14.77
2022-10-23T17:33:46.735Z,15.48
2022-10-23T17:36:15.595Z,12.37
2022-10-23T17:38:46.025Z,13.88
2022-10-23T17:41:14.654Z,13.60
2022-10-23T17:43:42.478Z,12.75
2022-10-23T17:46:10.227Z,16.33
2022-10-23T17:48:39.285Z,22.60
2022-10-23T17:51:19.198Z,19.70
2022-10-23T17:53:48.813Z,14.55
2022-10-23T17:56:29.539Z,16.25
2022-10-23T17:59:00.821Z,15.10
2022-10-23T18:01:29.419Z,13.95
2022-10-23T18:03:59.357Z,15.30
2022-10-23T18:06:29.807Z,12.35
2022-10-23T18:08:57.142Z,14.80
2022-10-23T18:11:26.661Z,16.15
2022-10-23T18:13:54.367Z,11.40
2022-10-23T18:16:21.547Z,14.75
2022-10-23T18:18:48.853Z,18.25
2022-10-23T18:21:16.813Z,11.73
2022-10-23T18:23:44.353Z,12.63
2022-10-23T18:26:24.069Z,11.52
2022-10-23T18:28:53.082Z,11.15
2022-10-23T18:31:20.853Z,13.20
2022-10-23T18:33:47.878Z,11.48
2022-10-23T18:36:23.941Z,10.05
2022-10-23T18:38:51.252Z,11.75
2022-10-23T18:41:19.130Z,12.93
2022-10-23T18:43:46.449Z,11.45
2022-10-23T18:46:13.874Z,11.75
2022-10-23T18:48:41.791Z,14.48
2022-10-23T18:51:23.777Z,14.32
2022-10-23T18:53:51.392Z,14.38
2022-10-23T18:56:24.199Z,14.68
2022-10-23T18:58:55.684Z,16.52
2022-10-23T19:01:24.110Z,10.65
2022-10-23T19:03:51.589Z,15.45
2022-10-23T19:06:20.054Z,21.75
2022-10-23T19:08:47.079Z,20.00
2022-10-23T19:11:15.916Z,18.23
2022-10-23T19:13:43.075Z,15.68
2022-10-23T19:16:14.507Z,12.40
2022-10-23T19:18:45.579Z,13.05
2022-10-23T19:21:12.831Z,15.88
2022-10-23T19:23:41.145Z,19.58
2022-10-23T19:26:11.862Z,18.17
2022-10-23T19:31:10.730Z,16.80
2022-10-23T19:33:38.986Z,22.52
2022-10-23T19:36:11.235Z,22.52
2022-10-23T19:38:41.978Z,19.85
2022-10-23T19:41:08.898Z,16.17
2022-10-23T19:43:37.695Z,22.52
2022-10-23T19:46:09.262Z,19.73
2022-10-23T19:48:42.395Z,18.73
2022-10-23T19:51:09.795Z,19.33
2022-10-23T19:53:36.682Z,20.67
2022-10-23T19:56:05.315Z,21.40
2022-10-23T19:58:32.474Z,18.20
2022-10-23T20:00:59.567Z,22.37
2022-10-23T20:03:26.802Z,18.37
2022-10-23T20:05:53.680Z,22.80
2022-10-23T20:08:20.517Z,21.15
2022-10-23T20:10:48.021Z,26.27
2022-10-23T20:13:19.827Z,24.33
2022-10-23T20:15:47.509Z,23.62
2022-10-23T20:18:14.360Z,23.60
2022-10-23T20:20:42.006Z,28.15
2022-10-23T20:23:09.208Z,26.83
2022-10-23T20:25:36.100Z,29.55
2022-10-23T20:28:03.510Z,32.78
2022-10-23T20:30:30.858Z,24.77
2022-10-23T20:32:57.870Z,24.55
2022-10-23T20:35:24.718Z,27.37
2022-10-23T20:37:51.871Z,27.33
2022-10-23T20:40:18.719Z,29.77
2022-10-23T20:42:45.584Z,29.55
2022-10-23T20:45:12.696Z,25.08
2022-10-23T20:47:39.818Z,28.33
2022-10-23T20:50:08.521Z,33.78
2022-10-23T20:52:35.645Z,26.50
2022-10-23T20:55:02.498Z,22.05
2022-10-23T20:57:29.394Z,23.27
2022-10-23T20:59:56.509Z,22.62
2022-10-23T21:02:23.432Z,28.62
2022-10-23T21:04:50.500Z,24.52
2022-10-23T21:07:18.201Z,27.15
2022-10-23T21:09:45.085Z,22.50
2022-10-23T21:12:12.013Z,19.85
2022-10-23T21:14:39.154Z,19.37
2022-10-23T21:17:06.243Z,24.75
2022-10-23T21:19:36.622Z,28.52
2022-10-23T21:22:06.848Z,21.98
2022-10-23T21:24:33.689Z,25.25
2022-10-23T21:27:00.521Z,24.23
2022-10-23T21:29:29.414Z,20.15
2022-10-23T21:31:58.501Z,18.30
2022-10-23T21:34:26.091Z,18.17
2022-10-23T21:37:12.324Z,26.33
2022-10-23T21:39:41.524Z,18.95
2022-10-23T21:42:08.817Z,21.02
2022-10-23T21:44:35.688Z,18.92
2022-10-23T21:47:05.671Z,20.88
2022-10-23T21:49:35.607Z,18.50
2022-10-23T21:52:05.431Z,17.52
2022-10-23T21:54:35.294Z,17.67
2022-10-23T21:57:03.426Z,20.30
2022-10-23T21:59:33.100Z,19.55
2022-10-23T22:02:05.537Z,22.55
2022-10-23T22:04:35.897Z,18.08
2022-10-23T22:07:06.550Z,18.75
2022-10-23T22:09:36.673Z,18.27
2022-10-23T22:12:07.067Z,17.70
2022-10-23T22:14:39.040Z,17.67
2022-10-23T22:17:06.311Z,16.92
2022-10-23T22:19:33.162Z,17.60
2022-10-23T22:22:00.297Z,17.12
2022-10-23T22:24:27.467Z,18.10
2022-10-23T22:26:56.282Z,15.00
2022-10-23T22:29:26.360Z,17.67
2022-10-23T22:31:53.308Z,20.12
2022-10-23T22:34:47.796Z,15.73
2022-10-23T22:37:12.920Z,17.62
2022-10-23T22:39:40.278Z,17.48
2022-10-23T22:42:07.580Z,18.80
2022-10-23T22:44:34.718Z,18.85
2022-10-23T22:47:03.864Z,18.37
2022-10-23T22:49:30.744Z,16.95
2022-10-23T22:52:00.359Z,16.80
2022-10-23T22:54:27.252Z,15.95
2022-10-23T22:56:54.110Z,25.83
2022-10-23T22:59:21.209Z,20.80
2022-10-23T23:01:49.075Z,25.30
2022-10-23T23:04:39.515Z,18.77
2022-10-23T23:07:09.941Z,22.50
2022-10-23T23:09:42.181Z,19.00
2022-10-23T23:12:11.082Z,19.65
2022-10-23T23:14:38.464Z,20.73
2022-10-23T23:17:05.657Z,18.87
2022-10-23T23:19:33.058Z,19.52
2022-10-23T23:22:00.029Z,19.37
2022-10-23T23:24:27.030Z,17.37
2022-10-23T23:26:54.141Z,25.80
2022-10-23T23:29:21.659Z,19.15
2022-10-23T23:31:48.522Z,20.95
2022-10-23T23:34:15.673Z,20.37
2022-10-23T23:36:42.521Z,19.25
2022-10-23T23:39:10.394Z,20.35
2022-10-23T23:41:37.854Z,27.48
2022-10-23T23:44:04.790Z,23.58
2022-10-23T23:46:31.638Z,25.20
2022-10-23T23:48:58.745Z,25.62
2022-10-23T23:51:26.292Z,23.73
2022-10-23T23:53:53.193Z,23.08
2022-10-23T23:56:20.721Z,24.45
2022-10-23T23:58:47.613Z,25.15
